createdAt,value
2023-08-29T00:02:00.390Z,22.25
2023-08-29T00:07:02.297Z,22.19
2023-08-29T00:12:04.899Z,22.07
2023-08-29T00:17:07.764Z,22.09
2023-08-29T00:22:10.056Z,22.04
2023-08-29T00:27:12.153Z,22.06
2023-08-29T00:32:15.265Z,22.06
2023-08-29T00:37:17.730Z,22.02
2023-08-29T00:42:19.708Z,21.99
2023-08-29T00:47:21.756Z,21.98
2023-08-29T00:52:25.456Z,21.90
2023-08-29T00:57:28.240Z,21.82
2023-08-29T01:02:30.518Z,21.74
2023-08-29T01:07:32.530Z,21.76
2023-08-29T01:12:59.502Z,21.68
2023-08-29T01:18:05.739Z,21.62
2023-08-29T01:23:14.579Z,21.48
2023-08-29T01:28:17.650Z,21.49
2023-08-29T01:33:20.850Z,21.41
2023-08-29T01:38:23.087Z,21.28
2023-08-29T01:43:25.135Z,21.29
2023-08-29T01:48:27.764Z,21.23
2023-08-29T01:53:30.538Z,21.10
2023-08-29T01:58:32.719Z,21.04
2023-08-29T02:03:34.761Z,21.04
2023-08-29T02:08:39.096Z,20.96
2023-08-29T02:13:42.259Z,20.94
2023-08-29T02:18:44.151Z,20.91
2023-08-29T02:23:47.602Z,20.94
2023-08-29T02:28:53.215Z,20.87
2023-08-29T02:33:55.355Z,20.76
2023-08-29T02:38:57.488Z,20.66
2023-08-29T02:43:59.443Z,20.62
2023-08-29T02:49:01.469Z,20.50
2023-08-29T02:54:03.530Z,20.48
2023-08-29T02:59:05.578Z,20.47
2023-08-29T03:04:08.089Z,20.46
2023-08-29T03:09:11.671Z,20.27
2023-08-29T03:14:15.049Z,20.26
2023-08-29T03:19:17.126Z,20.10
2023-08-29T03:24:19.619Z,20.16
2023-08-29T03:29:21.717Z,20.01
2023-08-29T03:34:24.288Z,19.94
2023-08-29T03:39:27.468Z,19.72
2023-08-29T03:44:29.506Z,19.76
2023-08-29T03:49:33.327Z,19.77
2023-08-29T03:54:35.346Z,19.63
2023-08-29T03:59:37.459Z,19.78
2023-08-29T04:04:40.125Z,19.73
2023-08-29T04:09:42.088Z,19.72
2023-08-29T04:14:44.054Z,19.55
2023-08-29T04:19:46.730Z,19.41
2023-08-29T04:24:49.890Z,19.35
2023-08-29T04:29:52.025Z,19.42
2023-08-29T04:34:54.135Z,19.31
2023-08-29T04:39:56.231Z,19.30
2023-08-29T04:44:59.316Z,19.34
2023-08-29T04:50:02.073Z,19.21
2023-08-29T04:55:06.808Z,19.19
2023-08-29T05:00:10.838Z,19.06
2023-08-29T05:05:12.945Z,18.98
2023-08-29T05:10:16.152Z,18.89
2023-08-29T05:15:18.304Z,18.94
2023-08-29T05:20:22.536Z,18.86
2023-08-29T05:25:24.623Z,18.87
2023-08-29T05:30:26.635Z,18.80
2023-08-29T05:35:28.602Z,18.77
2023-08-29T05:40:33.233Z,18.83
2023-08-29T05:45:36.379Z,18.80
2023-08-29T05:50:42.093Z,18.82
2023-08-29T05:55:44.231Z,18.93
2023-08-29T06:00:46.332Z,18.83
2023-08-29T06:05:51.210Z,18.83
2023-08-29T06:10:53.643Z,18.76
2023-08-29T06:15:55.581Z,18.70
2023-08-29T06:20:57.619Z,18.75
2023-08-29T06:25:59.730Z,18.84
2023-08-29T06:31:08.256Z,18.80
2023-08-29T06:36:11.061Z,18.81
2023-08-29T06:41:13.174Z,18.78
2023-08-29T06:46:15.645Z,18.70
2023-08-29T06:51:17.810Z,18.82
2023-08-29T06:56:20.128Z,18.83
2023-08-29T07:01:22.397Z,18.79
2023-08-29T07:06:24.519Z,18.95
2023-08-29T07:11:26.486Z,19.06
2023-08-29T07:16:28.457Z,19.06
2023-08-29T07:21:30.355Z,19.11
2023-08-29T07:26:32.684Z,19.37
2023-08-29T07:31:36.397Z,19.56
2023-08-29T07:36:40.581Z,19.52
2023-08-29T07:41:42.719Z,19.63
2023-08-29T07:46:57.568Z,19.62
2023-08-29T07:52:06.743Z,19.83
2023-08-29T07:57:09.248Z,19.95
2023-08-29T08:02:11.441Z,20.29
2023-08-29T08:07:13.682Z,20.30
2023-08-29T08:12:15.703Z,20.42
2023-08-29T08:17:17.766Z,20.55
2023-08-29T08:22:19.986Z,20.64
2023-08-29T08:27:22.111Z,20.90
2023-08-29T08:32:24.644Z,21.01
2023-08-29T08:37:26.679Z,21.20
2023-08-29T08:42:30.674Z,21.53
2023-08-29T08:47:38.231Z,21.89
2023-08-29T08:52:42.509Z,22.51
2023-08-29T08:57:44.771Z,23.27
2023-08-29T09:02:47.134Z,24.05
2023-08-29T09:07:49.121Z,25.15
2023-08-29T09:12:53.170Z,26.16
2023-08-29T09:17:55.730Z,26.48
2023-08-29T09:22:58.333Z,27.10
2023-08-29T09:28:00.458Z,27.25
2023-08-29T09:33:09.279Z,27.83
2023-08-29T09:38:11.588Z,28.83
2023-08-29T09:43:15.002Z,28.77
2023-08-29T09:48:17.581Z,28.51
2023-08-29T09:53:21.172Z,28.52
2023-08-29T09:58:25.116Z,28.93
2023-08-29T10:03:27.619Z,29.20
2023-08-29T10:08:47.503Z,29.62
2023-08-29T10:13:49.658Z,28.95
2023-08-29T10:18:52.330Z,29.21
2023-08-29T10:23:54.699Z,30.12
2023-08-29T10:28:57.527Z,29.89
2023-08-29T10:33:59.900Z,30.14
2023-08-29T10:39:02.199Z,29.76
2023-08-29T10:44:30.374Z,29.83
2023-08-29T10:49:45.310Z,29.93
2023-08-29T10:54:47.602Z,29.53
2023-08-29T10:59:49.743Z,29.32
2023-08-29T11:04:56.358Z,29.49
2023-08-29T11:10:21.636Z,29.89
2023-08-29T11:15:23.522Z,29.97
2023-08-29T11:20:25.668Z,29.80
2023-08-29T11:25:27.808Z,29.93
2023-08-29T11:30:38.857Z,30.16
2023-08-29T11:35:45.675Z,29.80
2023-08-29T11:40:59.985Z,29.96
2023-08-29T11:46:09.594Z,29.54
2023-08-29T11:51:11.820Z,28.91
2023-08-29T11:56:13.894Z,28.90
2023-08-29T12:01:16.127Z,28.40
2023-08-29T12:06:18.253Z,27.95
2023-08-29T12:11:20.403Z,27.74
2023-08-29T12:16:23.028Z,27.35
2023-08-29T12:21:25.004Z,27.18
2023-08-29T12:26:26.892Z,26.99
2023-08-29T12:31:28.882Z,26.86
2023-08-29T12:36:31.232Z,27.23
2023-08-29T12:41:33.512Z,27.13
2023-08-29T12:46:35.923Z,27.34
2023-08-29T12:51:38.041Z,27.35
2023-08-29T12:56:39.960Z,27.37
2023-08-29T13:01:41.983Z,27.36
2023-08-29T13:06:44.273Z,27.49
2023-08-29T13:11:47.924Z,27.38
2023-08-29T13:16:50.475Z,27.47
2023-08-29T13:21:53.012Z,27.36
2023-08-29T13:26:54.878Z,27.25
2023-08-29T13:31:57.514Z,27.40
2023-08-29T13:36:59.606Z,27.31
2023-08-29T13:42:01.598Z,27.35
2023-08-29T13:47:04.232Z,27.33
2023-08-29T13:52:09.528Z,27.38
2023-08-29T13:57:11.530Z,27.42
2023-08-29T14:02:14.267Z,27.42
2023-08-29T14:07:17.817Z,27.33
2023-08-29T14:12:19.820Z,27.18
2023-08-29T14:17:21.890Z,27.26
2023-08-29T14:22:27.414Z,27.23
2023-08-29T14:27:29.473Z,27.22
2023-08-29T14:32:31.833Z,27.27
2023-08-29T14:37:34.014Z,27.33
2023-08-29T14:42:36.089Z,27.62
2023-08-29T14:47:38.176Z,27.77
2023-08-29T14:52:41.623Z,27.82
2023-08-29T14:57:43.748Z,27.85
2023-08-29T15:02:46.349Z,27.83
2023-08-29T15:07:48.659Z,27.93
2023-08-29T15:12:50.799Z,27.92
2023-08-29T15:17:53.054Z,27.94
2023-08-29T15:22:55.123Z,27.95
2023-08-29T15:27:57.542Z,27.65
2023-08-29T15:33:00.073Z,27.55
2023-08-29T15:38:02.226Z,27.48
2023-08-29T15:43:05.246Z,27.28
2023-08-29T15:48:07.614Z,27.36
2023-08-29T15:53:09.893Z,27.31
2023-08-29T15:58:14.854Z,27.28
2023-08-29T16:03:17.885Z,27.36
2023-08-29T16:08:20.038Z,27.38
2023-08-29T16:13:22.078Z,27.20
2023-08-29T16:18:24.802Z,27.11
2023-08-29T16:23:26.975Z,27.03
2023-08-29T16:28:29.471Z,26.99
2023-08-29T16:33:31.552Z,26.97
2023-08-29T16:38:34.400Z,26.78
2023-08-29T16:43:36.407Z,26.66
2023-08-29T16:48:38.514Z,26.54
2023-08-29T16:53:40.582Z,26.59
2023-08-29T16:58:42.507Z,26.59
2023-08-29T17:03:44.635Z,26.51
2023-08-29T17:08:46.908Z,26.42
2023-08-29T17:13:49.543Z,26.33
2023-08-29T17:18:51.468Z,26.39
2023-08-29T17:23:53.384Z,26.35
2023-08-29T17:28:55.364Z,26.24
2023-08-29T17:33:57.348Z,26.23
2023-08-29T17:38:59.405Z,26.39
2023-08-29T17:44:01.830Z,26.50
2023-08-29T17:49:04.460Z,26.46
2023-08-29T17:54:06.814Z,26.52
2023-08-29T17:59:08.961Z,26.36
2023-08-29T18:11:36.285Z,26.29
2023-08-29T18:16:38.564Z,26.27
2023-08-29T18:21:40.653Z,26.27
2023-08-29T18:26:42.717Z,26.05
2023-08-29T18:31:44.966Z,26.13
2023-08-29T18:36:46.986Z,26.03
2023-08-29T18:41:49.072Z,26.02
2023-08-29T18:46:51.400Z,26.00
2023-08-29T18:51:53.463Z,26.01
2023-08-29T18:56:55.547Z,26.01
2023-08-29T19:02:02.384Z,25.94
2023-08-29T19:07:05.005Z,25.70
2023-08-29T19:12:07.444Z,25.47
2023-08-29T19:17:09.561Z,25.42
2023-08-29T19:22:12.956Z,25.29
2023-08-29T19:27:22.655Z,25.04
2023-08-29T19:32:27.355Z,24.92
2023-08-29T19:37:30.119Z,24.77
2023-08-29T19:42:32.132Z,24.60
2023-08-29T19:47:34.985Z,24.54
2023-08-29T19:52:37.151Z,24.48
2023-08-29T19:57:39.245Z,24.38
2023-08-29T20:02:41.546Z,24.33
2023-08-29T20:07:44.807Z,24.20
2023-08-29T20:12:49.778Z,24.12
2023-08-29T20:17:51.909Z,24.07
2023-08-29T20:22:53.895Z,23.94
2023-08-29T20:27:55.807Z,23.83
2023-08-29T20:32:58.505Z,23.76
2023-08-29T20:38:00.571Z,23.66
2023-08-29T20:43:02.805Z,23.55
2023-08-29T20:48:05.427Z,23.50
2023-08-29T20:53:07.733Z,23.46
2023-08-29T20:58:10.057Z,23.39
2023-08-29T21:03:12.372Z,23.28
2023-08-29T21:08:14.417Z,23.25
2023-08-29T21:13:18.036Z,23.19
2023-08-29T21:18:20.695Z,23.10
2023-08-29T21:23:23.608Z,23.08
2023-08-29T21:28:26.894Z,23.02
2023-08-29T21:33:28.955Z,22.93
2023-08-29T21:38:34.260Z,22.87
2023-08-29T21:43:36.702Z,22.73
2023-08-29T21:48:38.802Z,22.66
2023-08-29T21:53:40.883Z,22.57
2023-08-29T21:58:44.272Z,22.49
2023-08-29T22:03:46.090Z,22.40
2023-08-29T22:08:48.408Z,22.34
2023-08-29T22:13:50.418Z,22.31
2023-08-29T22:18:52.612Z,22.34
2023-08-29T22:23:54.768Z,22.31
2023-08-29T22:28:56.946Z,22.26
2023-08-29T22:33:58.883Z,22.24
2023-08-29T22:39:01.060Z,22.18
2023-08-29T22:44:05.716Z,22.15
2023-08-29T22:49:07.838Z,21.98
2023-08-29T22:54:09.841Z,21.97
2023-08-29T22:59:11.928Z,21.87
2023-08-29T23:04:13.921Z,21.76
2023-08-29T23:09:16.042Z,21.68
2023-08-29T23:14:24.896Z,21.60
2023-08-29T23:19:27.077Z,21.46
2023-08-29T23:24:29.282Z,21.37
2023-08-29T23:29:34.068Z,21.24
2023-08-29T23:34:37.233Z,21.25
2023-08-29T23:39:40.451Z,21.23
2023-08-29T23:44:42.484Z,21.20
2023-08-29T23:49:46.012Z,21.24
2023-08-29T23:54:48.124Z,21.21
2023-08-29T23:59:50.447Z,21.13
